Time;durP1;ratioP1;P1;durP2;ratioP2;P2;SDS_P1;SDS_P2;PMS_P1;PMS_P2;Temp;Humidity;BMP_temperature;BMP_pressure;BME280_temperature;BME280_humidity;BME280_pressure;Samples;Min_cycle;Max_cycle;Signal;HPM_P1;HPM_P2
2024/01/27 00:00:41;;;;;;;24.40;10.30;;;;;;;;;;5042827;28;20145;-65
2024/01/27 00:04:21;;;;;;;23.25;9.77;;;;;;;;;;5050308;28;20044;-69
2024/01/27 00:08:01;;;;;;;21.85;9.20;;;;;;;;;;5039164;28;20496;-63
2024/01/27 00:11:42;;;;;;;22.25;9.68;;;;;;;;;;5047754;28;20136;-63
2024/01/27 00:15:24;;;;;;;20.80;10.02;;;;;;;;;;5046270;28;20040;-62
2024/01/27 00:19:04;;;;;;;25.45;9.88;;;;;;;;;;5050845;28;20049;-62
2024/01/27 00:22:44;;;;;;;25.13;10.02;;;;;;;;;;5048042;28;20052;-61
2024/01/27 00:26:25;;;;;;;31.27;11.02;;;;;;;;;;5043674;28;20037;-62
2024/01/27 00:30:05;;;;;;;19.70;9.65;;;;;;;;;;5045786;28;20124;-62
2024/01/27 00:33:45;;;;;;;19.58;9.80;;;;;;;;;;5048247;28;20157;-64
2024/01/27 00:37:26;;;;;;;17.20;9.45;;;;;;;;;;5047941;28;20060;-62
2024/01/27 00:41:06;;;;;;;19.20;9.55;;;;;;;;;;5042580;28;20477;-62
2024/01/27 00:44:47;;;;;;;19.05;10.30;;;;;;;;;;5044710;28;20370;-61
2024/01/27 00:48:29;;;;;;;23.95;9.85;;;;;;;;;;5036703;28;20043;-62
2024/01/27 00:52:11;;;;;;;20.55;10.20;;;;;;;;;;5047270;28;20041;-62
2024/01/27 00:55:51;;;;;;;24.75;9.85;;;;;;;;;;5043011;28;20060;-62
2024/01/27 00:59:31;;;;;;;30.67;10.80;;;;;;;;;;5046756;28;20548;-63
2024/01/27 01:03:12;;;;;;;21.25;9.63;;;;;;;;;;5047323;28;20489;-63
2024/01/27 01:06:52;;;;;;;21.13;9.45;;;;;;;;;;5046902;28;20472;-63
2024/01/27 01:10:34;;;;;;;19.08;8.93;;;;;;;;;;5045012;28;20048;-60
2024/01/27 01:14:14;;;;;;;17.00;8.50;;;;;;;;;;5046352;28;20037;-65
2024/01/27 01:17:54;;;;;;;18.13;8.32;;;;;;;;;;5043275;28;20037;-63
2024/01/27 01:21:36;;;;;;;16.10;8.65;;;;;;;;;;5042045;28;20052;-61
2024/01/27 01:25:17;;;;;;;15.40;8.10;;;;;;;;;;5044685;28;20080;-61
2024/01/27 01:28:57;;;;;;;13.75;8.23;;;;;;;;;;5049994;28;20037;-60
2024/01/27 01:32:38;;;;;;;16.77;7.88;;;;;;;;;;5044627;28;20060;-60
2024/01/27 01:36:18;;;;;;;12.48;7.70;;;;;;;;;;5042359;28;20053;-62
2024/01/27 01:39:58;;;;;;;15.80;7.28;;;;;;;;;;5043705;28;20459;-64
2024/01/27 01:43:40;;;;;;;15.13;7.40;;;;;;;;;;5039834;28;20041;-61
2024/01/27 01:47:22;;;;;;;13.20;6.93;;;;;;;;;;5044073;28;20048;-61
2024/01/27 01:51:02;;;;;;;12.32;7.15;;;;;;;;;;5041618;28;20106;-61
2024/01/27 01:54:42;;;;;;;12.88;7.50;;;;;;;;;;5047584;28;20699;-62
2024/01/27 01:58:23;;;;;;;12.30;7.40;;;;;;;;;;5039644;28;20151;-62
2024/01/27 02:02:03;;;;;;;13.95;7.65;;;;;;;;;;5044937;28;20049;-60
2024/01/27 02:05:44;;;;;;;13.40;6.68;;;;;;;;;;5042708;28;20045;-61
2024/01/27 02:09:24;;;;;;;13.50;6.75;;;;;;;;;;5034056;28;20107;-61
2024/01/27 02:13:05;;;;;;;11.73;6.97;;;;;;;;;;5036371;28;20717;-61
2024/01/27 02:16:45;;;;;;;16.27;7.63;;;;;;;;;;5044163;28;20068;-61
2024/01/27 02:20:26;;;;;;;16.10;7.45;;;;;;;;;;5046364;28;20049;-60
2024/01/27 02:24:07;;;;;;;14.85;8.00;;;;;;;;;;5041587;28;20409;-60
2024/01/27 02:27:48;;;;;;;16.17;7.63;;;;;;;;;;5040777;28;20083;-61
2024/01/27 02:31:27;;;;;;;17.48;8.15;;;;;;;;;;5037808;28;20124;-61
2024/01/27 02:35:08;;;;;;;14.93;7.90;;;;;;;;;;5044363;28;20098;-61
2024/01/27 02:38:08;;;;;;;17.33;7.88;;;;;;;;;;5038776;28;20459;-61
2024/01/27 02:40:34;;;;;;;20.98;7.63;;;;;;;;;;5037482;28;20069;-60
2024/01/27 02:43:00;;;;;;;18.35;8.07;;;;;;;;;;5045813;28;20061;-62
2024/01/27 02:45:29;;;;;;;14.90;7.93;;;;;;;;;;5044743;28;20080;-62
2024/01/27 02:47:56;;;;;;;15.43;7.72;;;;;;;;;;5040855;28;20049;-61
2024/01/27 02:50:23;;;;;;;20.75;7.90;;;;;;;;;;5041511;28;20060;-60
2024/01/27 02:52:48;;;;;;;19.27;7.32;;;;;;;;;;5046456;28;20141;-62
2024/01/27 02:55:15;;;;;;;14.20;7.95;;;;;;;;;;5044950;28;20079;-61
2024/01/27 02:57:41;;;;;;;16.40;7.70;;;;;;;;;;5044809;28;20538;-62
2024/01/27 03:00:08;;;;;;;20.30;8.63;;;;;;;;;;5043790;28;20057;-60
2024/01/27 03:02:33;;;;;;;16.15;6.80;;;;;;;;;;5043310;28;20045;-61
2024/01/27 03:05:00;;;;;;;20.77;7.60;;;;;;;;;;5043865;28;20080;-60
2024/01/27 03:07:26;;;;;;;15.63;7.50;;;;;;;;;;5042951;28;20170;-62
2024/01/27 03:09:52;;;;;;;15.15;7.15;;;;;;;;;;5042467;28;20230;-61
2024/01/27 03:12:22;;;;;;;13.45;6.45;;;;;;;;;;5044009;28;20126;-61
2024/01/27 03:14:49;;;;;;;14.65;6.82;;;;;;;;;;5043892;28;20509;-62
2024/01/27 03:17:15;;;;;;;13.32;6.55;;;;;;;;;;5047224;28;20563;-60
2024/01/27 03:19:43;;;;;;;14.85;6.43;;;;;;;;;;5048230;28;20037;-62
2024/01/27 03:22:10;;;;;;;14.15;6.57;;;;;;;;;;5049381;28;20049;-62
2024/01/27 03:24:37;;;;;;;13.52;6.72;;;;;;;;;;5049423;28;20433;-64
2024/01/27 03:27:03;;;;;;;14.90;6.53;;;;;;;;;;5050345;28;20188;-62
2024/01/27 03:29:29;;;;;;;15.82;6.05;;;;;;;;;;5048383;28;20049;-60
2024/01/27 03:31:55;;;;;;;10.73;6.25;;;;;;;;;;5050706;28;20045;-60
2024/01/27 03:34:24;;;;;;;13.75;6.30;;;;;;;;;;5050930;28;20420;-63
2024/01/27 03:36:51;;;;;;;13.45;6.60;;;;;;;;;;5052285;28;20052;-61
2024/01/27 03:39:17;;;;;;;17.38;5.93;;;;;;;;;;5046660;28;20057;-62
2024/01/27 03:41:43;;;;;;;13.35;6.03;;;;;;;;;;5050040;28;20051;-60
2024/01/27 03:44:09;;;;;;;13.18;6.25;;;;;;;;;;5049057;28;20124;-61
2024/01/27 03:46:35;;;;;;;13.73;6.95;;;;;;;;;;5049186;28;20128;-60
2024/01/27 03:49:02;;;;;;;14.00;6.22;;;;;;;;;;5047144;28;20033;-62
2024/01/27 03:51:28;;;;;;;16.70;6.65;;;;;;;;;;5050362;28;20496;-62
2024/01/27 03:53:54;;;;;;;15.45;6.72;;;;;;;;;;5048047;28;20053;-61
2024/01/27 03:56:20;;;;;;;12.00;6.20;;;;;;;;;;5050226;28;20447;-62
2024/01/27 03:58:48;;;;;;;13.02;6.00;;;;;;;;;;5045619;28;20083;-63
2024/01/27 04:01:15;;;;;;;14.90;6.90;;;;;;;;;;5048020;28;20450;-61
2024/01/27 04:03:42;;;;;;;15.23;6.95;;;;;;;;;;5050316;28;20129;-61
2024/01/27 04:06:08;;;;;;;15.73;6.18;;;;;;;;;;5065666;28;20048;-60
2024/01/27 04:08:34;;;;;;;13.27;6.18;;;;;;;;;;5063598;28;20048;-60
2024/01/27 04:11:00;;;;;;;14.30;6.40;;;;;;;;;;5049924;28;20550;-61
2024/01/27 04:13:26;;;;;;;15.20;6.90;;;;;;;;;;5049229;28;20531;-60
2024/01/27 04:15:53;;;;;;;15.40;7.32;;;;;;;;;;5047452;28;20053;-59
2024/01/27 04:18:19;;;;;;;16.42;6.95;;;;;;;;;;5046395;28;20056;-61
2024/01/27 04:20:45;;;;;;;21.67;7.72;;;;;;;;;;5048721;28;20249;-68
2024/01/27 04:23:12;;;;;;;15.80;7.47;;;;;;;;;;5047061;28;20037;-61
2024/01/27 04:25:38;;;;;;;18.48;8.15;;;;;;;;;;5045746;28;20056;-60
2024/01/27 04:28:05;;;;;;;16.33;7.10;;;;;;;;;;5045996;28;20051;-62
2024/01/27 04:30:31;;;;;;;14.73;6.97;;;;;;;;;;5047914;28;20095;-65
2024/01/27 04:32:57;;;;;;;15.60;7.55;;;;;;;;;;5043810;28;20576;-63
2024/01/27 04:35:23;;;;;;;16.08;7.45;;;;;;;;;;5048034;28;20128;-60
2024/01/27 04:37:49;;;;;;;18.30;7.13;;;;;;;;;;5045766;28;20295;-63
2024/01/27 04:40:15;;;;;;;12.93;6.18;;;;;;;;;;5038412;28;20049;-61
2024/01/27 04:42:42;;;;;;;11.63;5.80;;;;;;;;;;5050301;28;20045;-65
2024/01/27 04:45:09;;;;;;;15.45;6.00;;;;;;;;;;5049083;28;20041;-61
2024/01/27 04:47:36;;;;;;;10.57;5.28;;;;;;;;;;5048729;28;20060;-60
2024/01/27 04:50:03;;;;;;;11.80;5.90;;;;;;;;;;5047732;28;20049;-61
2024/01/27 04:52:29;;;;;;;9.60;5.32;;;;;;;;;;5044880;28;20046;-60
2024/01/27 04:54:55;;;;;;;19.45;5.53;;;;;;;;;;5039073;28;20099;-62
2024/01/27 04:57:22;;;;;;;10.85;5.88;;;;;;;;;;5063658;28;20061;-62
2024/01/27 04:59:49;;;;;;;10.57;5.20;;;;;;;;;;5047522;28;20148;-62
2024/01/27 05:02:15;;;;;;;8.77;4.57;;;;;;;;;;5031675;28;20407;-62
2024/01/27 05:04:40;;;;;;;9.00;4.63;;;;;;;;;;5039100;28;20056;-61
2024/01/27 05:07:08;;;;;;;13.70;5.22;;;;;;;;;;5048823;28;20436;-60
2024/01/27 05:09:35;;;;;;;10.73;4.32;;;;;;;;;;5046439;28;20189;-62
2024/01/27 05:12:02;;;;;;;6.78;4.78;;;;;;;;;;5044569;28;20044;-60
2024/01/27 05:14:28;;;;;;;8.13;4.38;;;;;;;;;;5047204;28;20094;-61
2024/01/27 05:16:54;;;;;;;12.07;4.75;;;;;;;;;;5047167;28;20103;-60
2024/01/27 05:19:21;;;;;;;8.93;4.22;;;;;;;;;;5046623;28;20053;-59
2024/01/27 05:21:48;;;;;;;8.38;4.13;;;;;;;;;;5046918;28;20052;-62
2024/01/27 05:24:14;;;;;;;10.48;4.32;;;;;;;;;;5044563;28;20393;-63
2024/01/27 05:26:42;;;;;;;8.73;4.30;;;;;;;;;;5047305;28;20112;-61
2024/01/27 05:29:08;;;;;;;7.70;4.28;;;;;;;;;;5046336;28;20111;-60
2024/01/27 05:31:35;;;;;;;9.02;4.25;;;;;;;;;;5043869;28;20061;-64
2024/01/27 05:34:01;;;;;;;11.55;4.60;;;;;;;;;;5040719;28;20053;-60
2024/01/27 05:36:27;;;;;;;8.38;4.45;;;;;;;;;;5047945;28;20053;-60
2024/01/27 05:38:53;;;;;;;9.57;4.95;;;;;;;;;;5045118;28;20501;-60
2024/01/27 05:41:19;;;;;;;11.45;4.25;;;;;;;;;;5048154;28;20453;-61
2024/01/27 05:43:45;;;;;;;13.75;5.05;;;;;;;;;;5046539;28;20063;-60
2024/01/27 05:46:11;;;;;;;14.05;5.32;;;;;;;;;;5046759;28;20491;-61
2024/01/27 05:48:37;;;;;;;13.30;5.25;;;;;;;;;;5041490;28;20108;-62
2024/01/27 05:51:03;;;;;;;15.15;5.85;;;;;;;;;;5039468;28;20102;-61
2024/01/27 05:53:30;;;;;;;11.90;5.63;;;;;;;;;;5046655;28;20111;-60
2024/01/27 05:55:57;;;;;;;11.18;5.88;;;;;;;;;;5046424;28;20524;-61
2024/01/27 05:58:23;;;;;;;11.80;5.88;;;;;;;;;;5046465;28;20091;-62
2024/01/27 06:00:51;;;;;;;12.32;5.93;;;;;;;;;;5043725;28;20052;-60
2024/01/27 06:03:17;;;;;;;10.75;5.22;;;;;;;;;;5039305;28;20357;-65
2024/01/27 06:05:43;;;;;;;11.48;5.60;;;;;;;;;;5043614;28;20132;-61
2024/01/27 06:08:10;;;;;;;9.55;5.20;;;;;;;;;;5046546;28;20053;-61
2024/01/27 06:10:37;;;;;;;11.68;5.55;;;;;;;;;;5035000;28;20375;-61
2024/01/27 06:13:04;;;;;;;14.30;5.85;;;;;;;;;;5044814;28;20045;-66
2024/01/27 06:15:33;;;;;;;12.82;5.55;;;;;;;;;;5043058;28;20052;-63
2024/01/27 06:17:59;;;;;;;12.43;5.20;;;;;;;;;;5046520;28;20098;-64
2024/01/27 06:20:27;;;;;;;9.55;4.47;;;;;;;;;;5034528;28;20099;-62
2024/01/27 06:22:53;;;;;;;10.48;4.75;;;;;;;;;;5043856;28;20405;-61
2024/01/27 06:25:21;;;;;;;9.57;4.88;;;;;;;;;;5046788;28;20295;-61
2024/01/27 06:27:48;;;;;;;9.95;4.80;;;;;;;;;;5045304;28;20053;-61
2024/01/27 06:30:15;;;;;;;12.63;5.20;;;;;;;;;;5040141;28;20052;-62
2024/01/27 06:32:42;;;;;;;11.93;5.00;;;;;;;;;;5047024;28;20063;-60
2024/01/27 06:35:09;;;;;;;10.07;5.20;;;;;;;;;;5046989;28;20198;-61
2024/01/27 06:37:35;;;;;;;9.93;4.45;;;;;;;;;;5047270;28;20158;-61
2024/01/27 06:40:02;;;;;;;10.50;4.63;;;;;;;;;;5045326;28;20045;-61
2024/01/27 06:42:28;;;;;;;11.82;4.30;;;;;;;;;;5046390;28;20106;-61
2024/01/27 06:44:54;;;;;;;8.07;4.78;;;;;;;;;;5044604;28;20045;-61
2024/01/27 06:47:20;;;;;;;10.45;4.63;;;;;;;;;;5042485;28;20064;-62
2024/01/27 06:49:46;;;;;;;13.50;4.78;;;;;;;;;;5045655;28;20076;-61
2024/01/27 06:52:12;;;;;;;9.07;5.05;;;;;;;;;;5048825;28;20049;-59
2024/01/27 06:54:43;;;;;;;8.27;5.30;;;;;;;;;;5050961;28;20379;-60
2024/01/27 06:57:21;;;;;;;11.30;4.65;;;;;;;;;;5051825;28;20114;-62
2024/01/27 06:59:52;;;;;;;10.90;4.28;;;;;;;;;;5049382;28;20073;-61
2024/01/27 07:02:29;;;;;;;10.60;5.00;;;;;;;;;;5045745;28;20072;-61
2024/01/27 07:04:55;;;;;;;10.63;5.10;;;;;;;;;;5053729;28;20041;-62
2024/01/27 07:07:26;;;;;;;8.98;4.22;;;;;;;;;;5051282;28;20072;-62
2024/01/27 07:09:56;;;;;;;15.38;5.00;;;;;;;;;;5045032;28;20032;-61
2024/01/27 07:12:23;;;;;;;11.90;5.10;;;;;;;;;;5051257;28;20076;-62
2024/01/27 07:14:51;;;;;;;15.77;5.38;;;;;;;;;;5046775;28;20114;-62
2024/01/27 07:17:18;;;;;;;17.08;5.63;;;;;;;;;;5047475;28;20052;-62
2024/01/27 07:19:44;;;;;;;14.38;5.43;;;;;;;;;;5043700;28;20422;-63
2024/01/27 07:22:12;;;;;;;15.00;5.15;;;;;;;;;;5049720;28;20319;-62
2024/01/27 07:24:38;;;;;;;17.05;5.68;;;;;;;;;;5048725;28;20045;-61
2024/01/27 07:27:04;;;;;;;13.23;4.70;;;;;;;;;;5045484;28;20053;-60
2024/01/27 07:29:30;;;;;;;10.55;4.80;;;;;;;;;;5047426;28;20466;-64
2024/01/27 07:31:56;;;;;;;14.27;5.00;;;;;;;;;;5046198;28;20048;-61
2024/01/27 07:34:23;;;;;;;10.43;4.40;;;;;;;;;;5046776;28;20127;-61
2024/01/27 07:36:50;;;;;;;13.60;5.05;;;;;;;;;;5049568;28;20048;-63
2024/01/27 07:39:16;;;;;;;11.50;5.22;;;;;;;;;;5046528;28;20041;-62
2024/01/27 07:41:43;;;;;;;14.15;4.70;;;;;;;;;;5050618;28;20500;-63
2024/01/27 07:44:14;;;;;;;13.77;4.53;;;;;;;;;;5050531;28;20246;-63
2024/01/27 07:46:41;;;;;;;12.73;4.32;;;;;;;;;;5049179;28;21121;-61
2024/01/27 07:49:08;;;;;;;11.43;4.38;;;;;;;;;;5044866;28;20132;-63
2024/01/27 07:51:35;;;;;;;13.85;4.20;;;;;;;;;;5050044;28;20507;-65
2024/01/27 07:54:01;;;;;;;8.90;4.78;;;;;;;;;;5047076;28;20049;-61
2024/01/27 07:56:27;;;;;;;10.45;4.63;;;;;;;;;;5050043;28;20052;-62
2024/01/27 07:58:53;;;;;;;6.88;4.07;;;;;;;;;;5050529;28;20378;-60
2024/01/27 08:01:20;;;;;;;13.73;4.28;;;;;;;;;;5044285;28;20036;-64
2024/01/27 08:03:46;;;;;;;5.97;4.10;;;;;;;;;;5048928;28;20063;-64
2024/01/27 08:06:17;;;;;;;7.93;3.92;;;;;;;;;;5047267;28;20109;-62
2024/01/27 08:08:48;;;;;;;14.55;4.47;;;;;;;;;;5050042;28;20053;-67
2024/01/27 08:11:15;;;;;;;11.32;4.32;;;;;;;;;;5047761;28;20052;-64
2024/01/27 08:13:42;;;;;;;10.00;4.40;;;;;;;;;;5029799;28;20061;-64
2024/01/27 08:16:13;;;;;;;11.73;4.97;;;;;;;;;;5045969;28;20083;-62
2024/01/27 08:18:42;;;;;;;15.45;7.45;;;;;;;;;;5049348;28;20528;-63
2024/01/27 08:21:09;;;;;;;14.60;6.82;;;;;;;;;;5036330;28;20224;-63
2024/01/27 08:23:35;;;;;;;8.32;4.90;;;;;;;;;;5044937;28;20114;-63
2024/01/27 08:26:02;;;;;;;9.90;4.85;;;;;;;;;;5048647;28;20598;-64
2024/01/27 08:28:28;;;;;;;11.75;5.00;;;;;;;;;;5051487;28;20045;-62
2024/01/27 08:30:54;;;;;;;13.38;5.10;;;;;;;;;;5043782;28;20059;-67
2024/01/27 08:33:20;;;;;;;15.20;4.47;;;;;;;;;;5051379;28;20260;-64
2024/01/27 08:36:26;;;;;;;9.68;4.45;;;;;;;;;;5049552;28;20484;-61
2024/01/27 08:40:07;;;;;;;11.50;4.45;;;;;;;;;;5044730;28;20055;-67
2024/01/27 08:43:47;;;;;;;10.98;4.32;;;;;;;;;;5047392;28;20072;-61
2024/01/27 08:47:28;;;;;;;14.85;5.00;;;;;;;;;;5039314;28;20500;-64
2024/01/27 08:51:12;;;;;;;10.98;5.13;;;;;;;;;;5045024;28;20053;-62
2024/01/27 08:54:51;;;;;;;11.25;4.88;;;;;;;;;;5044924;28;20060;-62
2024/01/27 08:58:31;;;;;;;19.55;5.43;;;;;;;;;;5051131;28;20053;-61
2024/01/27 09:02:12;;;;;;;24.52;5.40;;;;;;;;;;5044680;28;20479;-65
2024/01/27 09:05:53;;;;;;;17.20;5.70;;;;;;;;;;5048357;28;20448;-63
2024/01/27 09:09:33;;;;;;;21.20;5.53;;;;;;;;;;5040525;28;20048;-63
2024/01/27 09:13:14;;;;;;;12.93;4.85;;;;;;;;;;5046041;28;20056;-62
2024/01/27 09:16:57;;;;;;;11.23;4.80;;;;;;;;;;5044028;28;20110;-62
2024/01/27 09:20:37;;;;;;;16.45;6.03;;;;;;;;;;5047347;28;20047;-61
2024/01/27 09:24:19;;;;;;;11.93;5.18;;;;;;;;;;5041984;28;20045;-63
2024/01/27 09:28:01;;;;;;;14.77;5.43;;;;;;;;;;5048378;28;20102;-61
2024/01/27 09:31:42;;;;;;;12.57;6.00;;;;;;;;;;5045415;28;20053;-62
2024/01/27 09:34:44;;;;;;;18.00;6.32;;;;;;;;;;5042320;28;20049;-65
2024/01/27 09:37:10;;;;;;;12.50;5.45;;;;;;;;;;5049221;28;20447;-63
2024/01/27 09:39:36;;;;;;;15.68;6.10;;;;;;;;;;5047149;28;20098;-60
2024/01/27 09:42:08;;;;;;;11.93;6.15;;;;;;;;;;5047357;28;20056;-62
2024/01/27 09:44:36;;;;;;;11.48;5.63;;;;;;;;;;5050434;28;20079;-63
2024/01/27 09:47:03;;;;;;;12.00;5.85;;;;;;;;;;5048478;28;20049;-64
2024/01/27 09:49:31;;;;;;;12.75;6.25;;;;;;;;;;5040901;28;20057;-62
2024/01/27 09:51:57;;;;;;;15.45;5.72;;;;;;;;;;5045143;28;20053;-64
2024/01/27 09:54:23;;;;;;;17.30;5.80;;;;;;;;;;5049188;28;20044;-61
2024/01/27 09:56:51;;;;;;;14.02;6.75;;;;;;;;;;5060909;28;20151;-62
2024/01/27 09:59:18;;;;;;;12.73;6.22;;;;;;;;;;5047193;28;20501;-60
2024/01/27 10:01:45;;;;;;;14.48;6.65;;;;;;;;;;5045954;28;20049;-62
2024/01/27 10:04:13;;;;;;;14.13;5.60;;;;;;;;;;5046437;28;20187;-62
2024/01/27 10:06:42;;;;;;;16.98;6.32;;;;;;;;;;5046709;28;20316;-63
2024/01/27 10:09:08;;;;;;;15.30;6.38;;;;;;;;;;5045872;28;20126;-65
2024/01/27 10:11:36;;;;;;;12.80;6.03;;;;;;;;;;5049293;28;20053;-61
2024/01/27 10:14:02;;;;;;;12.95;6.45;;;;;;;;;;5048717;28;20048;-62
2024/01/27 10:16:39;;;;;;;16.45;6.75;;;;;;;;;;5043091;28;20071;-62
2024/01/27 10:19:05;;;;;;;15.93;6.97;;;;;;;;;;5044067;28;20067;-65
2024/01/27 10:21:32;;;;;;;14.63;6.70;;;;;;;;;;5049388;28;20420;-63
2024/01/27 10:24:01;;;;;;;13.90;7.45;;;;;;;;;;5051790;28;20060;-66
2024/01/27 10:26:33;;;;;;;18.63;7.68;;;;;;;;;;5044141;28;20408;-62
2024/01/27 10:29:01;;;;;;;19.85;7.00;;;;;;;;;;5047436;28;20363;-62
2024/01/27 10:31:28;;;;;;;18.65;7.80;;;;;;;;;;5039229;28;20496;-63
2024/01/27 10:33:57;;;;;;;12.68;7.28;;;;;;;;;;5045162;28;20064;-61
2024/01/27 10:36:28;;;;;;;17.40;8.30;;;;;;;;;;5048243;28;20057;-63
2024/01/27 10:38:54;;;;;;;19.52;8.27;;;;;;;;;;5045019;28;20049;-62
2024/01/27 10:41:26;;;;;;;15.98;7.93;;;;;;;;;;5047707;28;20049;-62
2024/01/27 10:43:56;;;;;;;13.98;7.72;;;;;;;;;;5046673;28;20080;-65
2024/01/27 10:46:23;;;;;;;14.40;7.72;;;;;;;;;;5046689;28;20104;-63
2024/01/27 10:48:53;;;;;;;17.77;8.40;;;;;;;;;;5044318;28;20217;-61
2024/01/27 10:51:30;;;;;;;13.52;8.25;;;;;;;;;;5038918;28;20496;-63
2024/01/27 10:54:02;;;;;;;12.27;8.88;;;;;;;;;;5043990;28;20219;-63
2024/01/27 10:56:35;;;;;;;14.02;8.20;;;;;;;;;;5043729;28;20052;-62
2024/01/27 10:59:04;;;;;;;20.40;8.95;;;;;;;;;;5045420;28;20410;-66
2024/01/27 11:01:35;;;;;;;15.40;8.32;;;;;;;;;;5047722;28;20057;-64
2024/01/27 11:04:03;;;;;;;17.67;9.20;;;;;;;;;;5047205;28;20047;-63
2024/01/27 11:06:31;;;;;;;15.65;9.02;;;;;;;;;;5049036;28;20045;-62
2024/01/27 11:08:59;;;;;;;19.67;8.93;;;;;;;;;;5034528;28;20049;-63
2024/01/27 11:11:26;;;;;;;19.60;10.23;;;;;;;;;;5040698;28;20136;-64
2024/01/27 11:13:52;;;;;;;20.27;10.13;;;;;;;;;;5048055;28;20073;-63
2024/01/27 11:16:30;;;;;;;29.92;10.20;;;;;;;;;;5047666;28;20055;-64
2024/01/27 11:18:57;;;;;;;28.27;10.02;;;;;;;;;;5048760;28;20110;-63
2024/01/27 11:21:23;;;;;;;17.92;10.55;;;;;;;;;;5049533;28;20577;-65
2024/01/27 11:23:50;;;;;;;20.38;10.25;;;;;;;;;;5046456;28;20057;-62
2024/01/27 11:26:20;;;;;;;16.00;10.15;;;;;;;;;;5046778;28;20057;-61
2024/01/27 11:28:47;;;;;;;20.70;10.60;;;;;;;;;;5041676;28;20060;-64
2024/01/27 11:31:18;;;;;;;15.73;9.88;;;;;;;;;;5047189;28;20056;-62
2024/01/27 11:33:46;;;;;;;15.23;8.88;;;;;;;;;;5039071;28;20139;-64
2024/01/27 11:36:23;;;;;;;18.10;9.60;;;;;;;;;;5049649;28;20033;-64
2024/01/27 11:38:51;;;;;;;18.33;9.30;;;;;;;;;;5050142;28;20448;-64
2024/01/27 11:41:27;;;;;;;15.23;9.52;;;;;;;;;;5044639;28;20079;-64
2024/01/27 11:43:57;;;;;;;12.73;9.55;;;;;;;;;;5046240;28;20067;-63
2024/01/27 11:46:24;;;;;;;17.85;10.13;;;;;;;;;;5050625;28;20083;-63
2024/01/27 11:48:49;;;;;;;17.17;9.48;;;;;;;;;;5035861;28;20053;-65
2024/01/27 11:51:23;;;;;;;17.02;9.50;;;;;;;;;;5050616;28;20187;-63
2024/01/27 11:53:49;;;;;;;14.48;9.13;;;;;;;;;;5047137;28;20084;-63
2024/01/27 11:56:15;;;;;;;14.57;9.27;;;;;;;;;;5040341;28;20148;-62
2024/01/27 11:58:51;;;;;;;12.82;9.52;;;;;;;;;;5035052;28;20041;-65
2024/01/27 12:01:19;;;;;;;16.55;9.68;;;;;;;;;;5028678;28;20481;-61
2024/01/27 12:03:46;;;;;;;16.08;9.73;;;;;;;;;;5032365;28;20056;-62
2024/01/27 12:06:12;;;;;;;14.43;9.70;;;;;;;;;;5032103;28;20063;-62
2024/01/27 12:08:38;;;;;;;19.65;10.85;;;;;;;;;;5028158;28;20190;-64
2024/01/27 12:11:07;;;;;;;15.07;9.98;;;;;;;;;;5028619;28;20041;-63
2024/01/27 12:13:37;;;;;;;15.68;10.55;;;;;;;;;;5028940;28;20099;-65
2024/01/27 12:16:03;;;;;;;14.15;9.50;;;;;;;;;;5027743;28;20521;-66
2024/01/27 12:18:30;;;;;;;23.02;10.30;;;;;;;;;;5026129;28;20127;-67
2024/01/27 12:21:00;;;;;;;16.88;10.60;;;;;;;;;;5028705;28;20457;-61
2024/01/27 12:23:26;;;;;;;19.00;11.30;;;;;;;;;;5028730;28;20172;-64
2024/01/27 12:25:54;;;;;;;16.02;10.50;;;;;;;;;;5028334;28;20057;-61
2024/01/27 12:28:22;;;;;;;24.85;10.57;;;;;;;;;;5035046;28;20061;-67
2024/01/27 12:30:52;;;;;;;22.73;11.63;;;;;;;;;;5029693;28;20087;-66
2024/01/27 12:33:21;;;;;;;22.45;11.93;;;;;;;;;;5027165;28;20058;-64
2024/01/27 12:35:49;;;;;;;22.98;11.70;;;;;;;;;;5050136;28;20033;-66
2024/01/27 12:38:20;;;;;;;19.08;11.73;;;;;;;;;;5048418;28;20038;-63
2024/01/27 12:40:47;;;;;;;19.65;10.82;;;;;;;;;;5023338;28;20119;-63
2024/01/27 12:43:14;;;;;;;19.63;10.52;;;;;;;;;;5032569;28;20100;-65
2024/01/27 12:45:40;;;;;;;21.02;11.13;;;;;;;;;;5030093;28;20053;-62
2024/01/27 12:48:08;;;;;;;19.48;11.63;;;;;;;;;;5028209;28;20049;-63
2024/01/27 12:50:35;;;;;;;23.70;11.18;;;;;;;;;;5027199;28;20497;-65
2024/01/27 12:53:00;;;;;;;16.35;11.30;;;;;;;;;;5030444;28;20084;-62
2024/01/27 12:55:30;;;;;;;19.67;12.25;;;;;;;;;;5043175;28;20077;-62
2024/01/27 12:57:57;;;;;;;20.30;11.25;;;;;;;;;;5049438;28;20049;-64
2024/01/27 13:00:24;;;;;;;20.10;12.63;;;;;;;;;;5045706;28;20504;-63
2024/01/27 13:02:53;;;;;;;23.13;12.95;;;;;;;;;;5062809;28;20053;-61
2024/01/27 13:05:22;;;;;;;25.67;12.82;;;;;;;;;;5045522;28;20493;-66
2024/01/27 13:08:00;;;;;;;22.52;11.25;;;;;;;;;;5045448;28;20090;-64
2024/01/27 13:10:30;;;;;;;19.80;11.88;;;;;;;;;;5057240;28;20684;-63
2024/01/27 13:13:09;;;;;;;23.20;12.38;;;;;;;;;;5049510;28;20085;-62
2024/01/27 13:15:37;;;;;;;23.38;12.38;;;;;;;;;;5044753;28;20132;-64
2024/01/27 13:18:04;;;;;;;20.33;12.50;;;;;;;;;;5046053;28;20041;-62
2024/01/27 13:20:34;;;;;;;25.90;12.40;;;;;;;;;;5047761;28;20049;-67
2024/01/27 13:23:00;;;;;;;22.40;12.25;;;;;;;;;;5051092;28;20109;-61
2024/01/27 13:25:26;;;;;;;23.98;12.80;;;;;;;;;;5047901;28;20140;-67
2024/01/27 13:27:52;;;;;;;20.42;12.23;;;;;;;;;;5048744;28;20132;-67
2024/01/27 13:30:19;;;;;;;23.15;12.73;;;;;;;;;;5048226;28;20049;-64
2024/01/27 13:32:45;;;;;;;23.00;13.13;;;;;;;;;;5050733;28;20049;-62
2024/01/27 13:35:11;;;;;;;24.15;13.50;;;;;;;;;;5049974;28;20059;-63
2024/01/27 13:37:39;;;;;;;21.10;13.43;;;;;;;;;;5049810;28;20127;-66
2024/01/27 13:40:09;;;;;;;23.00;11.80;;;;;;;;;;5047999;28;20157;-62
2024/01/27 13:42:37;;;;;;;19.30;12.32;;;;;;;;;;5032214;28;20040;-62
2024/01/27 13:45:04;;;;;;;21.35;11.32;;;;;;;;;;5046793;28;20057;-64
2024/01/27 13:47:31;;;;;;;20.85;11.00;;;;;;;;;;5047244;28;20044;-62
2024/01/27 13:49:58;;;;;;;19.42;10.32;;;;;;;;;;5048738;28;20131;-64
2024/01/27 13:52:24;;;;;;;21.30;11.50;;;;;;;;;;5049064;28;20071;-64
2024/01/27 13:54:52;;;;;;;26.95;11.45;;;;;;;;;;5045942;28;20057;-65
2024/01/27 13:57:18;;;;;;;22.38;11.73;;;;;;;;;;5047795;28;20056;-63
2024/01/27 13:59:47;;;;;;;19.23;10.85;;;;;;;;;;5041382;28;20050;-62
2024/01/27 14:02:13;;;;;;;23.63;12.55;;;;;;;;;;5048847;28;20043;-66
2024/01/27 14:04:40;;;;;;;18.73;10.50;;;;;;;;;;5063061;28;20053;-63
2024/01/27 14:07:09;;;;;;;19.98;10.35;;;;;;;;;;5043236;28;20068;-64
2024/01/27 14:09:36;;;;;;;18.30;11.07;;;;;;;;;;5036906;28;20044;-64
2024/01/27 14:12:02;;;;;;;21.38;11.05;;;;;;;;;;5050225;28;20045;-63
2024/01/27 14:14:29;;;;;;;19.67;11.30;;;;;;;;;;5046696;28;20096;-62
2024/01/27 14:16:57;;;;;;;22.15;12.93;;;;;;;;;;5048732;28;20052;-62
2024/01/27 14:19:23;;;;;;;21.38;12.93;;;;;;;;;;5041901;28;20080;-63
2024/01/27 14:21:49;;;;;;;20.95;13.10;;;;;;;;;;5046956;28;20104;-64
2024/01/27 14:24:16;;;;;;;21.92;12.57;;;;;;;;;;5044542;28;20052;-65
2024/01/27 14:26:43;;;;;;;25.30;13.68;;;;;;;;;;5047291;28;20063;-63
2024/01/27 14:29:10;;;;;;;21.90;13.85;;;;;;;;;;5046555;28;20045;-64
2024/01/27 14:31:36;;;;;;;22.15;13.63;;;;;;;;;;5048473;28;20037;-64
2024/01/27 14:34:05;;;;;;;18.80;12.00;;;;;;;;;;5042006;28;20098;-63
2024/01/27 14:36:31;;;;;;;17.65;11.65;;;;;;;;;;5047065;28;20053;-63
2024/01/27 14:39:09;;;;;;;21.08;12.07;;;;;;;;;;5045778;28;20563;-67
2024/01/27 14:41:40;;;;;;;16.63;11.85;;;;;;;;;;5048716;28;20049;-63
2024/01/27 14:44:08;;;;;;;22.27;12.52;;;;;;;;;;5045043;28;20068;-63
2024/01/27 14:46:39;;;;;;;17.55;12.45;;;;;;;;;;5037386;28;20045;-68
2024/01/27 14:49:09;;;;;;;17.90;11.98;;;;;;;;;;5045930;28;20424;-63
2024/01/27 14:51:36;;;;;;;19.00;13.32;;;;;;;;;;5046100;28;20036;-62
2024/01/27 14:54:07;;;;;;;22.05;12.57;;;;;;;;;;5048144;28;20131;-65
2024/01/27 14:56:36;;;;;;;21.27;13.05;;;;;;;;;;5052609;28;20078;-62
2024/01/27 14:59:03;;;;;;;23.58;12.70;;;;;;;;;;5045717;28;20052;-64
2024/01/27 15:01:30;;;;;;;18.55;12.35;;;;;;;;;;5046867;28;20053;-62
2024/01/27 15:04:00;;;;;;;19.58;11.50;;;;;;;;;;5038693;28;20053;-63
2024/01/27 15:06:27;;;;;;;16.75;11.10;;;;;;;;;;5044871;28;20049;-65
2024/01/27 15:08:54;;;;;;;18.52;11.15;;;;;;;;;;5047603;28;20037;-64
2024/01/27 15:11:21;;;;;;;20.70;11.43;;;;;;;;;;5052451;28;20057;-64
2024/01/27 15:13:47;;;;;;;17.48;11.85;;;;;;;;;;5051182;28;20057;-62
2024/01/27 15:16:16;;;;;;;22.27;13.15;;;;;;;;;;5047719;28;20088;-64
2024/01/27 15:18:44;;;;;;;19.70;13.23;;;;;;;;;;5051715;28;20556;-64
2024/01/27 15:21:10;;;;;;;18.23;12.40;;;;;;;;;;5048063;28;20061;-62
2024/01/27 15:23:37;;;;;;;18.00;12.15;;;;;;;;;;5048597;28;20412;-61
2024/01/27 15:26:06;;;;;;;21.02;12.75;;;;;;;;;;5050468;28;20112;-62
2024/01/27 15:28:32;;;;;;;20.13;13.68;;;;;;;;;;5033546;28;20059;-61
2024/01/27 15:30:59;;;;;;;22.10;14.30;;;;;;;;;;5050960;28;20589;-64
2024/01/27 15:33:28;;;;;;;20.13;13.38;;;;;;;;;;5050553;28;20059;-62
2024/01/27 15:35:54;;;;;;;21.50;14.40;;;;;;;;;;5047800;28;20049;-62
2024/01/27 15:38:26;;;;;;;22.40;13.93;;;;;;;;;;5050020;28;20041;-60